createdAt,value
2023-01-13T00:00:00.620Z,980.874
2023-01-13T00:01:00.780Z,980.8167
2023-01-13T00:02:00.957Z,980.9394
2023-01-13T00:03:01.065Z,980.7463
2023-01-13T00:04:01.228Z,980.825
2023-01-13T00:05:00.453Z,980.825
2023-01-13T00:06:00.494Z,980.8822
2023-01-13T00:07:00.657Z,980.8321
2023-01-13T00:08:00.788Z,980.825
2023-01-13T00:09:00.950Z,980.8795
2023-01-13T00:10:01.099Z,980.781
2023-01-13T00:11:01.233Z,980.7677
2023-01-13T00:12:00.365Z,980.8822
2023-01-13T00:13:00.553Z,980.7677
2023-01-13T00:14:00.685Z,980.7413
2023-01-13T00:15:00.836Z,980.825
2023-01-13T00:16:01.079Z,980.7177
2023-01-13T00:17:01.134Z,980.8602
2023-01-13T00:18:00.290Z,980.9394
2023-01-13T00:19:00.432Z,980.8976
2023-01-13T00:20:00.581Z,980.8117
2023-01-13T00:21:00.734Z,980.7677
2023-01-13T00:22:00.869Z,980.7881
2023-01-13T00:23:01.033Z,980.6665
2023-01-13T00:24:01.173Z,980.7391
2023-01-13T00:25:00.319Z,980.7105
2023-01-13T00:26:00.470Z,980.8954
2023-01-13T00:27:00.616Z,980.6665
2023-01-13T00:28:00.789Z,980.781
2023-01-13T00:29:00.912Z,980.6577
2023-01-13T00:30:01.057Z,980.5636
2023-01-13T00:31:01.237Z,980.6209
2023-01-13T00:32:00.353Z,980.6863
2023-01-13T00:33:00.533Z,980.7133
2023-01-13T00:34:00.661Z,980.6121
2023-01-13T00:35:00.802Z,980.7133
2023-01-13T00:36:00.946Z,980.7353
2023-01-13T00:37:01.094Z,980.6929
2023-01-13T00:38:01.253Z,980.584
2023-01-13T00:39:00.413Z,980.584
2023-01-13T00:40:00.549Z,980.5768
2023-01-13T00:41:00.687Z,980.7045
2023-01-13T00:42:00.830Z,980.7601
2023-01-13T00:43:00.997Z,980.4888
2023-01-13T00:44:01.133Z,980.4959
2023-01-13T00:45:00.282Z,980.6897
2023-01-13T00:46:00.443Z,980.6016
2023-01-13T00:47:00.594Z,980.4871
2023-01-13T00:48:00.725Z,980.6016
2023-01-13T00:49:00.871Z,980.4299
2023-01-13T00:50:01.042Z,980.4227
2023-01-13T00:51:01.176Z,980.4607
2023-01-13T00:52:00.322Z,980.4607
2023-01-13T00:53:00.499Z,980.7954
2023-01-13T00:54:00.611Z,980.5009
2023-01-13T00:55:00.773Z,980.5576
2023-01-13T00:56:00.912Z,980.4431
2023-01-13T00:57:01.055Z,980.4012
2023-01-13T00:58:01.226Z,980.4436
2023-01-13T00:59:00.344Z,980.5157
2023-01-13T01:00:00.498Z,980.6897
2023-01-13T01:01:00.692Z,980.4959
2023-01-13T01:02:00.970Z,980.3941
2023-01-13T01:03:00.960Z,980.5069
2023-01-13T01:04:01.077Z,980.3203
2023-01-13T01:05:01.259Z,980.6347
2023-01-13T01:06:00.376Z,980.4678
2023-01-13T01:07:00.531Z,980.448
2023-01-13T01:08:00.690Z,980.4211
2023-01-13T01:09:00.815Z,980.4128
2023-01-13T01:10:00.967Z,980.5202
2023-01-13T01:11:01.111Z,980.6721
2023-01-13T01:12:01.272Z,980.5009
2023-01-13T01:13:00.444Z,980.4871
2023-01-13T01:14:00.613Z,980.5928
2023-01-13T01:15:00.731Z,980.5202
2023-01-13T01:16:00.904Z,980.5912
2023-01-13T01:17:01.002Z,980.3858
2023-01-13T01:18:01.145Z,980.4078
2023-01-13T01:19:00.318Z,980.4739
2023-01-13T01:20:00.444Z,980.4959
2023-01-13T01:21:00.589Z,980.48
2023-01-13T01:22:00.741Z,980.3462
2023-01-13T01:23:00.883Z,980.3941
2023-01-13T01:24:01.048Z,980.4233
2023-01-13T01:25:01.175Z,980.6897
2023-01-13T01:26:00.334Z,980.4255
2023-01-13T01:27:00.475Z,980.6897
2023-01-13T01:28:00.618Z,980.6897
2023-01-13T01:29:00.788Z,980.6897
2023-01-13T01:30:00.928Z,980.5768
2023-01-13T01:31:01.115Z,980.5768
2023-01-13T01:32:01.229Z,980.584
2023-01-13T01:33:00.373Z,980.6121
2023-01-13T01:34:00.512Z,980.584
2023-01-13T01:35:00.681Z,980.6897
2023-01-13T01:36:00.818Z,980.584
2023-01-13T01:37:00.966Z,980.6126
2023-01-13T01:38:01.138Z,980.6544
2023-01-13T01:39:01.257Z,980.5179
2023-01-13T01:40:00.440Z,980.7601
2023-01-13T01:41:00.582Z,980.6341
2023-01-13T01:42:00.715Z,980.6209
2023-01-13T01:43:00.856Z,980.6506
2023-01-13T01:44:00.997Z,980.535
2023-01-13T01:45:01.145Z,980.6473
2023-01-13T01:46:00.319Z,980.5598
2023-01-13T01:47:00.481Z,980.4117
2023-01-13T01:48:00.596Z,980.5064
2023-01-13T01:49:00.742Z,980.584
2023-01-13T01:50:00.885Z,980.6897
2023-01-13T01:51:01.055Z,980.4513
2023-01-13T01:52:01.180Z,980.3368
2023-01-13T01:53:00.354Z,980.6897
2023-01-13T01:54:00.497Z,980.3176
2023-01-13T01:55:00.627Z,980.5246
2023-01-13T01:56:00.779Z,980.5416
2023-01-13T01:57:00.917Z,980.4288
2023-01-13T01:58:01.081Z,980.464
2023-01-13T01:59:01.214Z,980.5768
2023-01-13T02:00:00.371Z,980.5064
2023-01-13T02:01:00.615Z,980.4216
2023-01-13T02:02:00.884Z,980.5064
2023-01-13T02:03:00.808Z,980.5064
2023-01-13T02:04:00.949Z,980.5064
2023-01-13T02:05:01.107Z,980.4574
2023-01-13T02:06:01.241Z,980.4734
2023-01-13T02:07:00.385Z,980.5064
2023-01-13T02:08:00.554Z,980.5064
2023-01-13T02:09:00.677Z,980.2406
2023-01-13T02:10:00.823Z,980.3413
2023-01-13T02:11:00.969Z,980.5064
2023-01-13T02:12:01.117Z,980.4469
2023-01-13T02:13:01.285Z,980.3611
2023-01-13T02:14:00.417Z,980.2752
2023-01-13T02:15:00.553Z,980.3088
2023-01-13T02:16:00.738Z,980.2867
2023-01-13T02:17:00.850Z,980.1677
2023-01-13T02:18:01.020Z,980.1259
2023-01-13T02:19:01.156Z,980.2554
2023-01-13T02:20:00.291Z,980.3061
2023-01-13T02:21:00.448Z,980.4216
2023-01-13T02:22:00.604Z,980.464
2023-01-13T02:23:00.771Z,980.2285
2023-01-13T02:24:00.916Z,980.5064
2023-01-13T02:25:01.051Z,980.072
2023-01-13T02:26:01.209Z,980.2351
2023-01-13T02:27:00.348Z,980.3232
2023-01-13T02:28:00.491Z,980.1727
2023-01-13T02:29:00.665Z,980.2599
2023-01-13T02:30:00.781Z,980.2527
2023-01-13T02:31:00.939Z,980.1712
2023-01-13T02:32:01.077Z,980.158
2023-01-13T02:33:01.260Z,980.31
2023-01-13T02:34:00.379Z,980.0677
2023-01-13T02:35:00.547Z,980.2527
2023-01-13T02:36:00.665Z,980.3303
2023-01-13T02:37:00.813Z,980.4216
2023-01-13T02:38:00.991Z,980.2836
2023-01-13T02:39:01.099Z,980.3958
2023-01-13T02:40:01.244Z,980.2599
2023-01-13T02:41:00.392Z,980.4216
2023-01-13T02:42:00.545Z,980.4216
2023-01-13T02:43:00.702Z,980.2879
2023-01-13T02:44:00.826Z,980.3672
2023-01-13T02:45:00.973Z,980.2968
2023-01-13T02:46:01.198Z,980.3958
2023-01-13T02:47:00.278Z,980.4244
2023-01-13T02:48:00.440Z,980.3743
2023-01-13T02:49:00.571Z,980.3232
2023-01-13T02:50:00.714Z,980.3303
2023-01-13T02:51:00.858Z,980.2879
2023-01-13T02:52:01.011Z,980.2885
2023-01-13T02:53:01.188Z,980.2527
2023-01-13T02:54:00.299Z,980.2599
2023-01-13T02:55:00.455Z,980.3804
2023-01-13T02:56:00.603Z,980.2599
2023-01-13T02:57:00.751Z,980.2879
2023-01-13T02:58:00.917Z,980.3232
2023-01-13T02:59:01.064Z,980.039
2023-01-13T03:00:01.183Z,980.2527
2023-01-13T03:01:00.496Z,980.2527
2023-01-13T03:02:00.706Z,980.31
2023-01-13T03:03:00.738Z,979.9334
2023-01-13T03:04:00.797Z,980.1623
2023-01-13T03:05:00.927Z,980.0611
2023-01-13T03:06:01.073Z,980.2879
2023-01-13T03:07:01.226Z,980.0742
2023-01-13T03:08:00.377Z,979.9466
2023-01-13T03:09:00.549Z,980.0038
2023-01-13T03:10:00.679Z,979.9466
2023-01-13T03:11:00.835Z,980.0038
2023-01-13T03:12:00.982Z,979.9792
2023-01-13T03:13:01.157Z,979.9792
2023-01-13T03:14:00.309Z,979.9792
2023-01-13T03:15:00.482Z,979.9792
2023-01-13T03:16:00.593Z,979.9511
2023-01-13T03:17:00.742Z,979.9946
2023-01-13T03:18:00.918Z,979.9374
2023-01-13T03:19:01.039Z,980.1376
2023-01-13T03:20:01.225Z,980.0804
2023-01-13T03:21:00.337Z,979.8753
2023-01-13T03:22:00.488Z,980.0607
2023-01-13T03:23:00.623Z,979.8298
2023-01-13T03:24:00.764Z,979.9342
2023-01-13T03:25:00.932Z,979.9056
2023-01-13T03:26:01.050Z,979.9914
2023-01-13T03:27:01.208Z,980.0409
2023-01-13T03:28:00.355Z,979.9914
2023-01-13T03:29:00.540Z,979.9914
2023-01-13T03:30:00.654Z,979.8573
2023-01-13T03:31:00.826Z,979.8167
2023-01-13T03:32:00.940Z,980.0189
2023-01-13T03:33:01.094Z,979.8298
2023-01-13T03:34:01.261Z,979.9299
2023-01-13T03:35:00.381Z,979.9651
2023-01-13T03:36:00.522Z,980.0002
2023-01-13T03:37:00.689Z,979.8859
2023-01-13T03:38:00.816Z,979.8453
2023-01-13T03:39:00.970Z,979.9496
2023-01-13T03:40:01.146Z,979.8704
2023-01-13T03:41:00.278Z,980.0002
2023-01-13T03:42:00.404Z,979.8595
2023-01-13T03:43:00.561Z,979.8595
2023-01-13T03:44:00.702Z,979.9299
2023-01-13T03:45:00.871Z,979.8947
2023-01-13T03:46:01.105Z,979.8947
2023-01-13T03:47:01.158Z,979.9299
2023-01-13T03:48:00.292Z,979.7397
2023-01-13T03:49:00.438Z,979.8189
2023-01-13T03:50:00.597Z,979.792
2023-01-13T03:51:00.735Z,979.7552
2023-01-13T03:52:00.891Z,979.6605
2023-01-13T03:53:01.058Z,979.7129
2023-01-13T03:54:01.183Z,979.7134
2023-01-13T03:55:00.363Z,979.8427
2023-01-13T03:56:00.494Z,979.7657
2023-01-13T03:57:00.626Z,979.7569
2023-01-13T03:58:00.811Z,979.8361
2023-01-13T03:59:00.926Z,979.7311
2023-01-13T04:00:01.086Z,979.7746
2023-01-13T04:01:01.333Z,979.6603
2023-01-13T04:02:00.584Z,979.7174
2023-01-13T04:03:00.513Z,979.696
2023-01-13T04:04:00.720Z,979.7657
2023-01-13T04:05:00.814Z,979.7789
2023-01-13T04:06:01.004Z,979.8833
2023-01-13T04:07:01.125Z,979.8229
2023-01-13T04:08:01.259Z,979.7503
2023-01-13T04:09:00.411Z,979.7992
2023-01-13T04:10:01.995Z,979.8595
2023-01-13T04:11:00.715Z,979.9602
2023-01-13T04:12:00.841Z,979.9036
2023-01-13T04:13:00.992Z,979.9382
2023-01-13T04:14:01.130Z,979.875
2023-01-13T04:15:00.282Z,979.68
2023-01-13T04:16:00.510Z,979.9184
2023-01-13T04:17:00.631Z,979.8678
2023-01-13T04:18:00.767Z,979.9227
2023-01-13T04:19:00.897Z,979.9316
2023-01-13T04:20:01.049Z,979.8833
2023-01-13T04:21:01.203Z,979.8075
2023-01-13T04:22:00.357Z,980.0196
2023-01-13T04:23:00.493Z,979.7817
2023-01-13T04:24:00.622Z,979.8169
2023-01-13T04:25:00.786Z,979.6357
2023-01-13T04:26:00.925Z,979.9335
2023-01-13T04:27:01.069Z,979.7714
2023-01-13T04:28:01.223Z,979.7906
2023-01-13T04:29:00.369Z,979.7746
2023-01-13T04:30:00.527Z,979.8269
2023-01-13T04:31:00.739Z,979.8663
2023-01-13T04:32:00.811Z,979.8724
2023-01-13T04:33:00.950Z,979.8658
2023-01-13T04:34:01.137Z,979.8663
2023-01-13T04:35:01.252Z,979.7632
2023-01-13T04:36:00.398Z,979.7906
2023-01-13T04:37:00.557Z,979.8192
2023-01-13T04:38:00.714Z,979.7966
2023-01-13T04:39:00.884Z,979.7311
2023-01-13T04:40:00.993Z,979.7789
2023-01-13T04:41:01.153Z,979.7597
2023-01-13T04:42:00.305Z,979.6888
2023-01-13T04:43:00.448Z,979.7174
2023-01-13T04:44:00.629Z,979.5882
2023-01-13T04:45:00.763Z,979.5882
2023-01-13T04:46:00.965Z,979.5882
2023-01-13T04:47:01.066Z,979.7043
2023-01-13T04:48:01.226Z,979.6268
2023-01-13T04:49:00.363Z,979.5434
2023-01-13T04:50:00.496Z,979.6857
2023-01-13T04:51:00.641Z,979.7906
2023-01-13T04:52:00.794Z,979.7614
2023-01-13T04:53:00.948Z,979.6763
2023-01-13T04:54:01.111Z,979.7043
2023-01-13T04:55:01.256Z,979.6185
2023-01-13T04:56:00.406Z,979.6823
2023-01-13T04:57:00.544Z,979.6471
2023-01-13T04:58:00.690Z,979.6191
2023-01-13T04:59:00.890Z,979.6285
2023-01-13T05:00:00.999Z,979.6791
2023-01-13T05:01:01.176Z,979.5737
2023-01-13T05:02:00.383Z,979.6046
2023-01-13T05:03:00.431Z,979.4349
2023-01-13T05:04:00.607Z,979.666
2023-01-13T05:05:00.777Z,979.5011
2023-01-13T05:06:00.885Z,979.6308
2023-01-13T05:07:01.028Z,979.488
2023-01-13T05:08:01.196Z,979.5808
2023-01-13T05:09:00.397Z,979.6791
2023-01-13T05:10:00.497Z,979.6683
2023-01-13T05:11:00.657Z,979.4771
2023-01-13T05:12:00.807Z,979.4986
2023-01-13T05:13:00.960Z,979.5474
2023-01-13T05:14:01.137Z,979.6266
2023-01-13T05:15:00.258Z,979.6063
2023-01-13T05:16:00.533Z,979.5123
2023-01-13T05:17:01.591Z,979.688
2023-01-13T05:18:00.703Z,979.6023
2023-01-13T05:19:00.879Z,979.6771
2023-01-13T05:20:01.027Z,979.6634
2023-01-13T05:21:01.159Z,979.6837
2023-01-13T05:22:00.308Z,979.6266
2023-01-13T05:23:00.450Z,979.826
2023-01-13T05:24:00.599Z,979.8595
2023-01-13T05:25:00.777Z,979.8023
2023-01-13T05:26:00.890Z,979.7143
2023-01-13T05:27:01.049Z,979.7143
2023-01-13T05:28:01.196Z,979.7429
2023-01-13T05:29:00.336Z,979.8978
2023-01-13T05:30:00.539Z,979.6708
2023-01-13T05:31:00.722Z,979.7906
2023-01-13T05:32:00.779Z,979.9807
2023-01-13T05:33:00.931Z,979.9235
2023-01-13T05:34:01.083Z,979.8663
2023-01-13T05:35:01.245Z,979.7614
2023-01-13T05:36:00.361Z,979.7026
2023-01-13T05:37:00.512Z,979.7026
2023-01-13T05:38:00.675Z,979.8103
2023-01-13T05:39:00.820Z,979.7943
2023-01-13T05:40:00.976Z,979.7855
2023-01-13T05:41:01.113Z,979.8361
2023-01-13T05:42:00.261Z,979.7992
2023-01-13T05:43:00.413Z,979.7217
2023-01-13T05:44:00.570Z,979.5656
2023-01-13T05:45:00.734Z,979.7746
2023-01-13T05:46:00.999Z,979.6191
2023-01-13T05:47:01.032Z,979.9466
2023-01-13T05:48:01.163Z,979.6774
2023-01-13T05:49:00.304Z,979.6203
2023-01-13T05:50:00.451Z,979.7346
2023-01-13T05:51:00.615Z,979.684
2023-01-13T05:52:00.735Z,979.7143
2023-01-13T05:53:00.891Z,979.55
2023-01-13T05:54:01.032Z,979.7026
2023-01-13T05:55:01.200Z,979.6168
2023-01-13T05:56:00.338Z,979.7569
2023-01-13T05:57:00.470Z,979.698
2023-01-13T05:58:00.612Z,979.7332
2023-01-13T05:59:00.769Z,979.7243
2023-01-13T06:00:00.913Z,979.7815
2023-01-13T06:01:01.148Z,979.8255
2023-01-13T06:02:01.212Z,979.7617
2023-01-13T06:03:00.542Z,979.7992
2023-01-13T06:04:00.570Z,979.7855
2023-01-13T06:05:00.634Z,979.8641
2023-01-13T06:06:00.795Z,979.8478
2023-01-13T06:07:00.931Z,979.674
2023-01-13T06:08:01.064Z,979.792
2023-01-13T06:09:01.226Z,979.8595
2023-01-13T06:10:00.425Z,979.7332
2023-01-13T06:11:00.528Z,979.7569
2023-01-13T06:12:00.653Z,979.7311
2023-01-13T06:13:00.809Z,979.8075
2023-01-13T06:14:00.959Z,979.7789
2023-01-13T06:15:01.094Z,979.8964
2023-01-13T06:16:01.349Z,979.8361
2023-01-13T06:17:00.392Z,979.8272
2023-01-13T06:18:00.540Z,979.7838
2023-01-13T06:19:00.697Z,979.9036
2023-01-13T06:20:00.849Z,979.9273
2023-01-13T06:21:01.000Z,980.1236
2023-01-13T06:22:01.127Z,980.1362
2023-01-13T06:23:00.282Z,980.0219
2023-01-13T06:24:00.427Z,980.0196
2023-01-13T06:25:00.572Z,980.0179
2023-01-13T06:26:00.732Z,980.1603
2023-01-13T06:27:00.890Z,980.046
2023-01-13T06:28:01.020Z,980.1757
2023-01-13T06:29:01.157Z,980.112
2023-01-13T06:30:00.320Z,980.0834
2023-01-13T06:31:00.463Z,980.0262
2023-01-13T06:32:00.623Z,980.1895
2023-01-13T06:33:00.765Z,980.0042
2023-01-13T06:34:00.927Z,980.1235
2023-01-13T06:35:01.056Z,979.9585
2023-01-13T06:36:01.198Z,980.0002
2023-01-13T06:37:00.370Z,980.0288
2023-01-13T06:38:00.525Z,980.1366
2023-01-13T06:39:00.641Z,979.8924
2023-01-13T06:40:00.788Z,979.921
2023-01-13T06:41:00.935Z,980.0288
2023-01-13T06:42:01.103Z,979.9342
2023-01-13T06:43:01.281Z,979.9914
2023-01-13T06:44:00.390Z,979.877
2023-01-13T06:45:00.560Z,979.8001
2023-01-13T06:46:00.695Z,979.877
2023-01-13T06:47:00.875Z,979.8281
2023-01-13T06:48:01.006Z,979.8418
2023-01-13T06:49:01.142Z,979.8604
2023-01-13T06:50:00.309Z,979.7726
2023-01-13T06:51:00.439Z,979.921
2023-01-13T06:52:00.581Z,979.8167
2023-01-13T06:53:00.752Z,979.7023
2023-01-13T06:54:00.893Z,979.7595
2023-01-13T06:55:01.051Z,979.7154
2023-01-13T06:56:01.190Z,979.9088
2023-01-13T06:57:00.343Z,979.9088
2023-01-13T06:58:00.487Z,979.69
2023-01-13T06:59:00.646Z,979.9088
2023-01-13T07:00:00.754Z,979.9391
2023-01-13T07:01:01.062Z,979.7429
2023-01-13T07:02:01.240Z,979.8759
2023-01-13T07:03:01.230Z,979.7709
2023-01-13T07:04:00.349Z,979.8132
2023-01-13T07:05:00.529Z,979.8061
2023-01-13T07:06:00.635Z,979.7995
2023-01-13T07:07:00.784Z,979.8753
2023-01-13T07:08:00.940Z,979.9045
2023-01-13T07:09:01.144Z,979.9374
2023-01-13T07:10:01.228Z,979.8819
2023-01-13T07:11:00.371Z,979.8819
2023-01-13T07:12:00.504Z,979.9897
2023-01-13T07:13:00.655Z,979.9088
2023-01-13T07:14:00.817Z,979.9088
2023-01-13T07:15:00.947Z,979.9176
2023-01-13T07:16:01.170Z,979.7995
2023-01-13T07:17:01.240Z,979.7715
2023-01-13T07:18:00.376Z,979.7374
2023-01-13T07:19:00.590Z,980.1058
2023-01-13T07:20:00.688Z,979.8518
2023-01-13T07:21:00.811Z,979.8281
2023-01-13T07:22:00.952Z,979.9088
2023-01-13T07:23:01.106Z,979.9105
2023-01-13T07:24:00.278Z,979.7429
2023-01-13T07:25:00.408Z,979.7709
2023-01-13T07:26:00.555Z,979.7429
2023-01-13T07:27:00.706Z,979.6934
2023-01-13T07:28:00.867Z,979.6582
2023-01-13T07:29:01.015Z,979.5813
2023-01-13T07:30:01.160Z,979.5985
2023-01-13T07:31:00.317Z,979.5765
2023-01-13T07:32:00.546Z,979.7134
2023-01-13T07:33:00.635Z,979.8206
2023-01-13T07:34:00.794Z,979.7217
2023-01-13T07:35:00.959Z,979.8427
2023-01-13T07:36:01.083Z,979.8361
2023-01-13T07:37:01.219Z,979.9404
2023-01-13T07:38:00.393Z,979.7569
2023-01-13T07:39:00.535Z,979.7397
2023-01-13T07:40:00.672Z,979.6408
2023-01-13T07:41:00.826Z,979.6891
2023-01-13T07:42:00.993Z,979.7429
2023-01-13T07:43:01.155Z,979.8221
2023-01-13T07:44:00.386Z,979.6451
2023-01-13T07:45:00.411Z,979.7815
2023-01-13T07:46:00.592Z,979.744
2023-01-13T07:47:00.724Z,979.7077
2023-01-13T07:48:00.880Z,979.8281
2023-01-13T07:49:00.998Z,979.7709
2023-01-13T07:50:01.130Z,979.5879
2023-01-13T07:51:00.277Z,979.7309
2023-01-13T07:52:00.420Z,979.6231
2023-01-13T07:53:00.586Z,979.6671
2023-01-13T07:54:00.740Z,979.7463
2023-01-13T07:55:00.869Z,979.7023
2023-01-13T07:56:01.000Z,979.6582
2023-01-13T07:57:01.171Z,979.6582
2023-01-13T07:58:00.289Z,979.7709
2023-01-13T07:59:00.461Z,979.7077
2023-01-13T08:00:00.619Z,979.7023
2023-01-13T08:01:00.889Z,979.5879
2023-01-13T08:02:01.109Z,979.7023
2023-01-13T08:03:01.101Z,979.6582
2023-01-13T08:04:01.184Z,979.7077
2023-01-13T08:05:00.338Z,979.8132
2023-01-13T08:06:00.482Z,979.7429
2023-01-13T08:07:00.639Z,979.5879
2023-01-13T08:08:00.777Z,979.5879
2023-01-13T08:09:00.920Z,979.5879
2023-01-13T08:10:01.061Z,979.6671
2023-01-13T08:11:01.199Z,979.5879
2023-01-13T08:12:00.366Z,979.8167
2023-01-13T08:13:00.491Z,979.5968
2023-01-13T08:14:00.640Z,979.5527
2023-01-13T08:15:00.783Z,979.5879
2023-01-13T08:16:00.924Z,979.6582
2023-01-13T08:17:01.092Z,979.4897
2023-01-13T08:18:01.227Z,979.4677
2023-01-13T08:19:00.390Z,979.246
2023-01-13T08:20:00.531Z,979.4611
2023-01-13T08:21:00.659Z,980.272
2023-01-13T08:22:00.824Z,980.7297
2023-01-13T08:23:00.958Z,980.8677
2023-01-13T08:24:01.114Z,981.0954
2023-01-13T08:25:01.261Z,980.9264
2023-01-13T08:26:00.415Z,981.0608
2023-01-13T08:27:00.588Z,980.9012
2023-01-13T08:28:00.707Z,980.8364
2023-01-13T08:29:00.846Z,980.8336
2023-01-13T08:30:00.994Z,980.9211
2023-01-13T08:31:01.212Z,980.8237
2023-01-13T08:32:00.330Z,980.7695
2023-01-13T08:33:00.428Z,980.7645
2023-01-13T08:34:00.580Z,980.892
2023-01-13T08:35:00.734Z,980.8483
2023-01-13T08:36:00.890Z,980.857
2023-01-13T08:37:01.030Z,980.6923
2023-01-13T08:38:01.162Z,980.8833
2023-01-13T08:39:00.316Z,980.903
2023-01-13T08:40:00.471Z,980.6754
2023-01-13T08:41:00.636Z,980.8045
2023-01-13T08:42:00.775Z,980.7974
2023-01-13T08:43:00.900Z,980.8061
2023-01-13T08:44:01.064Z,980.857
2023-01-13T08:45:01.214Z,980.8854
2023-01-13T08:46:00.461Z,980.8499
2023-01-13T08:47:00.511Z,980.8433
2023-01-13T08:48:00.625Z,980.9571
2023-01-13T08:49:00.782Z,980.9789
2023-01-13T08:50:00.947Z,981.0511
2023-01-13T08:51:01.095Z,980.9089
2023-01-13T08:52:01.277Z,980.9171
2023-01-13T08:53:00.389Z,980.9526
2023-01-13T08:54:00.521Z,980.8536
2023-01-13T08:55:00.677Z,980.9389
2023-01-13T08:56:00.846Z,980.9674
2023-01-13T08:57:01.043Z,981.0664
2023-01-13T08:58:14.569Z,980.8405
2023-01-13T08:59:00.281Z,981.0177
2023-01-13T09:00:00.437Z,981.103
2023-01-13T09:01:00.687Z,981.0243
2023-01-13T09:02:00.928Z,980.9811
2023-01-13T09:03:00.884Z,980.9373
2023-01-13T09:04:01.093Z,980.852
2023-01-13T09:05:01.175Z,981.0643
2023-01-13T09:06:00.329Z,980.9789
2023-01-13T09:07:00.489Z,981.1628
2023-01-13T09:08:00.611Z,981.1912
2023-01-13T09:09:00.767Z,980.9789
2023-01-13T09:10:00.904Z,981.1983
2023-01-13T09:11:01.055Z,981.1628
2023-01-13T09:12:01.227Z,981.2328
2023-01-13T09:13:00.378Z,981.211
2023-01-13T09:14:03.213Z,981.211
2023-01-13T09:15:00.641Z,981.2678
2023-01-13T09:16:00.854Z,981.3953
2023-01-13T09:17:00.982Z,981.2678
2023-01-13T09:18:01.096Z,981.3466
2023-01-13T09:19:01.269Z,981.3887
2023-01-13T09:20:00.396Z,981.2613
2023-01-13T09:21:00.527Z,981.4035
2023-01-13T09:22:00.683Z,981.3466
2023-01-13T09:23:00.827Z,981.1983
2023-01-13T09:24:00.993Z,981.5112
2023-01-13T09:25:01.156Z,981.6079
2023-01-13T09:26:00.262Z,981.5041
2023-01-13T09:27:00.416Z,981.369
2023-01-13T09:28:00.567Z,981.369
2023-01-13T09:29:00.728Z,981.1759
2023-01-13T09:30:00.902Z,981.1759
2023-01-13T09:31:01.082Z,981.2049
2023-01-13T09:32:01.177Z,981.1541
2023-01-13T09:33:00.374Z,981.211
2023-01-13T09:34:00.491Z,981.1196
2023-01-13T09:35:00.667Z,981.0337
2023-01-13T09:36:00.770Z,981.1256
2023-01-13T09:37:00.918Z,980.9971
2023-01-13T09:38:01.090Z,981.0687
2023-01-13T09:39:01.211Z,981.025
2023-01-13T09:40:00.389Z,980.9051
2023-01-13T09:41:00.514Z,980.9549
2023-01-13T09:42:00.646Z,980.8833
2023-01-13T09:43:00.786Z,981.0403
2023-01-13T09:44:00.942Z,980.9199
2023-01-13T09:45:01.099Z,980.8264
2023-01-13T09:46:01.297Z,980.9396
2023-01-13T09:47:00.378Z,980.6552
2023-01-13T09:48:00.523Z,980.8543
2023-01-13T09:49:00.667Z,980.7192
2023-01-13T09:50:00.831Z,980.8872
2023-01-13T09:51:01.039Z,980.7449
2023-01-13T09:52:01.121Z,980.7717
2023-01-13T09:53:01.267Z,980.8571
2023-01-13T09:54:00.413Z,980.9709
2023-01-13T09:55:00.607Z,980.5944
2023-01-13T09:56:00.738Z,980.6366
2023-01-13T09:57:00.863Z,980.6716
2023-01-13T09:58:00.999Z,980.6716
2023-01-13T09:59:01.157Z,980.7066
2023-01-13T10:00:00.321Z,980.7066
2023-01-13T10:01:00.506Z,980.7066
2023-01-13T10:02:00.612Z,980.7767
2023-01-13T10:03:00.739Z,980.7767
2023-01-13T10:04:00.897Z,980.8117
2023-01-13T10:05:01.162Z,980.8818
2023-01-13T10:06:01.176Z,980.7948
2023-01-13T10:07:00.350Z,980.7948
2023-01-13T10:08:00.468Z,980.6875
2023-01-13T10:09:00.615Z,980.6153
2023-01-13T10:10:00.756Z,980.6503
2023-01-13T10:11:00.902Z,980.6788
2023-01-13T10:12:01.102Z,980.4998
2023-01-13T10:13:01.197Z,980.5616
2023-01-13T10:14:00.365Z,980.577
2023-01-13T10:15:00.500Z,980.4144
2023-01-13T10:16:02.910Z,980.52
2023-01-13T10:17:00.818Z,980.4062
2023-01-13T10:18:00.950Z,980.4565
2023-01-13T10:19:01.135Z,980.6624
2023-01-13T10:20:01.248Z,980.5266
2023-01-13T10:21:00.379Z,980.6405
2023-01-13T10:22:00.557Z,980.6186
2023-01-13T10:23:00.677Z,980.4193
2023-01-13T10:24:00.834Z,980.5682
2023-01-13T10:25:00.985Z,980.4171
2023-01-13T10:26:01.191Z,980.6433
2023-01-13T10:27:00.284Z,980.5704
2023-01-13T10:28:00.410Z,980.6252
2023-01-13T10:29:00.558Z,980.5535
2023-01-13T10:30:00.720Z,980.5951
2023-01-13T10:31:00.916Z,980.8652
2023-01-13T10:32:01.032Z,980.6658
2023-01-13T10:33:01.185Z,980.8279
2023-01-13T10:34:00.292Z,980.7425
2023-01-13T10:35:00.449Z,980.806
2023-01-13T10:36:00.626Z,980.9184
2023-01-13T10:37:00.746Z,980.8899
2023-01-13T10:38:00.914Z,980.8899
2023-01-13T10:39:01.059Z,980.7759
2023-01-13T10:40:01.211Z,980.662
2023-01-13T10:41:00.395Z,980.9529
2023-01-13T10:42:00.523Z,980.8899
2023-01-13T10:43:00.680Z,980.8899
2023-01-13T10:44:00.806Z,980.782
2023-01-13T10:45:00.949Z,981.0587
2023-01-13T10:46:01.110Z,980.8242
2023-01-13T10:47:01.250Z,980.8724
2023-01-13T10:48:00.404Z,981.1004
2023-01-13T10:49:00.577Z,980.8927
2023-01-13T10:50:00.672Z,980.8505
2023-01-13T10:51:00.830Z,980.9497
2023-01-13T10:52:01.023Z,980.8993
2023-01-13T10:53:01.145Z,980.8988
2023-01-13T10:54:00.301Z,980.9558
2023-01-13T10:55:00.456Z,980.9262
2023-01-13T10:56:00.603Z,980.9394
2023-01-13T10:57:00.733Z,980.9043
2023-01-13T10:58:00.878Z,980.9465
2023-01-13T10:59:01.080Z,981.0605
2023-01-13T11:00:01.166Z,980.9465
2023-01-13T11:01:00.398Z,980.8972
2023-01-13T11:02:01.254Z,980.9043
2023-01-13T11:03:00.617Z,980.9542
2023-01-13T11:04:00.777Z,981.0402
2023-01-13T11:05:00.975Z,981.0698
2023-01-13T11:06:01.065Z,980.9497
2023-01-13T11:07:01.206Z,981.0352
2023-01-13T11:08:00.362Z,980.7519
2023-01-13T11:09:00.514Z,980.7869
2023-01-13T11:10:00.677Z,980.8505
2023-01-13T11:11:00.797Z,980.7014
2023-01-13T11:12:00.946Z,980.388
2023-01-13T11:13:01.129Z,980.7217
2023-01-13T11:14:01.277Z,980.708
2023-01-13T11:15:00.470Z,980.7217
2023-01-13T11:16:00.658Z,980.7217
2023-01-13T11:17:00.698Z,980.799
2023-01-13T11:18:00.848Z,980.8692
2023-01-13T11:19:01.006Z,980.7306
2023-01-13T11:20:01.182Z,980.7021
2023-01-13T11:21:00.325Z,980.7355
2023-01-13T11:22:00.463Z,980.6983
2023-01-13T11:23:00.601Z,980.718
2023-01-13T11:24:00.758Z,980.7806
2023-01-13T11:25:00.894Z,980.7784
2023-01-13T11:26:01.024Z,980.8069
2023-01-13T11:27:01.171Z,980.7921
2023-01-13T11:28:00.311Z,980.9194
2023-01-13T11:29:00.477Z,980.8843
2023-01-13T11:30:00.629Z,980.9479
2023-01-13T11:31:00.814Z,980.9254
2023-01-13T11:32:00.900Z,980.8295
2023-01-13T11:33:01.068Z,981.0408
2023-01-13T11:34:01.209Z,981.0759
2023-01-13T11:35:00.349Z,980.9668
2023-01-13T11:36:00.511Z,981.171
2023-01-13T11:37:00.629Z,981.0481
2023-01-13T11:38:00.770Z,981.2784
2023-01-13T11:39:00.936Z,980.9341
2023-01-13T11:40:01.069Z,980.9423
2023-01-13T11:41:01.243Z,981.3135
2023-01-13T11:42:00.356Z,981.1055
2023-01-13T11:43:00.530Z,981.1657
2023-01-13T11:44:00.654Z,981.1525
2023-01-13T11:45:00.809Z,981.0767
2023-01-13T11:46:00.979Z,981.1074